Aircraft
UPR1037 PR-BAH B737-800
SBSN
Santarém - Maestro Wilson Fonseca International Airport
SBIH
Itaituba Airport
Pilot:: Klebson
Aircraft:: Douglas DC-6B (PMDG)
Alternate: SNFX
Network: ivao
FLIGHT DETAILS
Distance: 131nm Duration 00h 09m
Cruise Speed: Flight Level: 23000
Validation: Validated Type Charter
Flight Fuel
ZFW: 62515
Block Fuel/Initial FOB: 10588
Flight Fuel: 2902
Cargo
Passengers: 58
Cargo: 1200
ROUTE
ROUTE: DCT
REMARKS:
DATE
Date: 26-04-25
Departure Time: 1436
Cargo: 1200
FLIGHT DETAILS
Crashed: No
Validator Comments: Validado por Rafael
Flight Rating: 99
LANDING ANALYSIS
Landing wind: 270º/1 kt
Landing heading: 237º
Landing VS:: -385 ft/min
Landing IAS:: 132 kt
Landing Force G: 1.1 G
Landing Bank: 0
Landing Pitch: -6
Landing Flaps: 100
Navigation Lights: ON
Landing Lights: ON
Beacon Lights: ON
Strobe Lights: ON
viserfly

ALTITUDE CHART

viserfly

MAIN EVENTS

DATE EVENT IAS ALTITUDE
2026-04-25 14:32:39 FLYacars version 1.3.4 0 206
2026-04-25 14:32:39 Aircraft boarding in progress 0 206
2026-04-25 14:32:39 FLAPS 37% 0 206
2026-04-25 14:36:15 Aircraft taxiing to runway 5 206
2026-04-25 14:36:52 Detected Take-off roll, HDG 279, IAS 174kt, GS 177kt, G-force 1.2g, Pitch -9.5deg, Bank 0.0deg, Wind 270/01kt, Temp 14°C 174 209
2026-04-25 14:36:52 Airborne 174 209
2026-04-25 14:36:54 Gear UP, IAS 177kt, GS 179kt, ALT 34ft AGL 177 231
2026-04-25 14:37:43 FLAPS 25% 183kt, ALT 2807ft 183 2807
2026-04-25 14:37:47 FLAPS 12% 190kt, ALT 2875ft 190 2875
2026-04-25 14:37:55 FLAPS 0% 201kt, ALT 2986ft 201 2986
2026-04-25 14:38:51 Landing lights ON above 10000fts 253 11004
2026-04-25 14:43:46 Gear DOWN, IAS 249kt, GS 272kt, ALT 5917ft AGL 249 6216
2026-04-25 14:43:46 Gear UP, IAS 249kt, GS 272kt, ALT 5901ft AGL 249 6203
2026-04-25 14:43:47 Gear DOWN, IAS 249kt, GS 272kt, ALT 5867ft AGL 249 6169
2026-04-25 14:43:48 FLAPS 12% 248kt, ALT 5966ft 248 5966
2026-04-25 14:43:50 FLAPS 25% 242kt, ALT 5737ft 242 5737
2026-04-25 14:43:51 FLAPS 37% 238kt, ALT 5642ft 238 5642
2026-04-25 14:43:52 FLAPS 50% 233kt, ALT 5545ft 233 5545
2026-04-25 14:43:54 FLAPS 62% 230kt, ALT 5479ft 230 5479
2026-04-25 14:44:08 FLAPS 75% 219kt, ALT 5012ft 219 5012
2026-04-25 14:45:02 FLAPS 87% 204kt, ALT 2747ft 204 2747
2026-04-25 14:45:19 Gear UP, IAS 189kt, GS 193kt, ALT 1945ft AGL 189 2139
2026-04-25 14:45:19 Simulator Paused 189 2139
2026-04-25 14:45:20 Strobe Lights OFF 189 2139
2026-04-25 14:45:20 Taxi Lights ON 189 2139
2026-04-25 14:45:21 Gear DOWN, IAS 189kt, GS 193kt, ALT 1944ft AGL 189 2139
2026-04-25 14:45:21 Simulator Un-Paused 189 2139
2026-04-25 14:45:22 Strobe Lights ON 189 2106
2026-04-25 14:45:22 Taxi Lights OFF 189 2106
2026-04-25 14:46:21 FLAPS 100% 154kt, ALT 299ft 154 299
2026-04-25 14:46:46 Landed at destination with a landing rate of -385fpm, G-force 1.1g, Pitch -5.6deg, Bank -0.5deg, HDG 237deg, IAS 132kt, GS 133kt, Wind 270/01kt, Temp 14°C 132 90
2026-04-25 14:47:00 Aircraft taxiing to apron 26 95
2026-04-25 14:47:13 Aircraft at gate/stand, ground services are moving into position, disembarkation has begun. Remaining FOB 7686kg FLYacars v1.3.4 0 95
viserfly

ACARS DATA

DATE IAS GS ALTITUDE FUEL CONSUMED OAT FLIGHT STATUS
2026-04-25 14:33:09 0 0 206 5 14 BOARDING
2026-04-25 14:33:39 0 0 206 10 14 BOARDING
2026-04-25 14:34:09 0 0 206 1100 14 BOARDING
2026-04-25 14:34:39 0 0 206 1105 14 BOARDING
2026-04-25 14:35:09 0 0 206 1111 14 BOARDING
2026-04-25 14:35:39 0 0 206 1117 14 BOARDING
2026-04-25 14:36:09 0 0 206 1122 14 BOARDING
2026-04-25 14:36:39 123 124 206 1195 14 TAKEOFF
2026-04-25 14:37:09 168 166 1193 1305 12 INITIAL CLIMB
2026-04-25 14:37:39 179 184 2658 1404 9 CLIMB
2026-04-25 14:38:09 247 258 3490 1525 8 CLIMB
2026-04-25 14:38:39 248 281 9058 1776 -2 CLIMB
2026-04-25 14:39:09 297 355 12595 1998 -9 CLIMB
2026-04-25 14:39:39 309 390 16479 2204 -17 CLIMB
2026-04-25 14:40:09 308 412 20076 2390 -23 CLIMB
2026-04-25 14:40:39 300 408 21108 2510 -26 ENROUTE
2026-04-25 14:41:09 272 372 21098 2576 -25 ENROUTE
2026-04-25 14:41:39 289 391 20697 2671 -25 DESCENT
2026-04-25 14:42:09 270 348 17197 2703 -18 DESCENT
2026-04-25 14:42:39 252 309 13739 2734 -11 DESCENT
2026-04-25 14:43:09 247 287 10372 2766 -4 DESCENT
2026-04-25 14:43:39 249 275 7000 2798 1 DESCENT
2026-04-25 14:44:09 219 234 5006 2818 5 DESCENT
2026-04-25 14:44:39 211 221 3785 2826 7 DESCENT
2026-04-25 14:45:09 200 205 2487 2834 10 DESCENT
2026-04-25 14:45:39 187 189 1387 2841 12 APPROACH
2026-04-25 14:46:09 168 169 496 2849 14 ON FINAL
2026-04-25 14:46:39 137 137 156 2868 14 ON FINAL
2026-04-25 14:47:09 0 0 95 2901 14 TAXI TO APRON
  • Join our VA!

    It has been 11 years of great learning, friendships, and stories.

  • Sign up now!